Time;durP1;ratioP1;P1;durP2;ratioP2;P2;SDS_P1;SDS_P2;PMS_P1;PMS_P2;Temp;Humidity;BMP_temperature;BMP_pressure;BME280_temperature;BME280_humidity;BME280_pressure;Samples;Min_cycle;Max_cycle;Signal;HPM_P1;HPM_P2
2023/06/12 00:01:02;;;;;;;9.45;5.38;;;21.90;51.00;;;21.50;42.61;100539.72;4932230;29;20043;-85
2023/06/12 00:03:30;;;;;;;7.63;5.30;;;21.90;51.30;;;21.45;42.62;100536.22;4929472;29;20484;-85
2023/06/12 00:05:59;;;;;;;8.13;4.93;;;21.80;51.30;;;21.43;42.66;100538.41;4940772;29;20519;-86
2023/06/12 00:08:32;;;;;;;8.93;5.90;;;21.70;51.40;;;21.38;42.85;100541.97;4915322;29;20135;-84
2023/06/12 00:10:59;;;;;;;7.82;5.35;;;21.70;51.30;;;21.35;42.35;100539.81;4935309;29;20500;-87
2023/06/12 00:13:27;;;;;;;7.28;5.15;;;21.70;51.30;;;21.31;42.38;100544.16;4931825;28;20047;-85
2023/06/12 00:15:54;;;;;;;8.73;5.38;;;21.70;51.30;;;21.26;43.02;100539.56;4929864;29;20128;-85
2023/06/12 00:18:21;;;;;;;8.77;5.65;;;21.60;51.40;;;21.24;42.76;100532.81;4932659;29;20114;-85
2023/06/12 00:20:48;;;;;;;7.50;5.05;;;21.60;51.80;;;21.19;43.02;100532.84;4931467;29;20035;-86
2023/06/12 00:23:18;;;;;;;8.45;5.35;;;21.60;52.10;;;21.16;43.27;100533.38;4930185;29;20052;-85
2023/06/12 00:25:47;;;;;;;8.63;4.97;;;21.50;52.30;;;21.12;43.16;100529.59;4939819;29;20043;-84
2023/06/12 00:28:14;;;;;;;12.65;5.50;;;21.50;52.30;;;21.08;43.09;100534.78;4940879;28;20114;-87
2023/06/12 00:30:42;;;;;;;10.13;5.75;;;21.40;52.20;;;21.03;43.25;100530.22;4926890;29;20545;-87
2023/06/12 00:33:09;;;;;;;7.40;5.32;;;21.40;52.30;;;21.00;43.55;100543.50;4930089;29;20416;-86
2023/06/12 00:35:36;;;;;;;8.77;6.07;;;21.40;52.40;;;20.98;43.45;100543.75;4942469;29;20082;-87
2023/06/12 00:38:03;;;;;;;8.00;5.30;;;21.30;52.40;;;20.93;43.83;100532.94;4918730;29;20050;-86
2023/06/12 00:40:30;;;;;;;9.00;5.85;;;21.30;52.80;;;20.91;43.79;100539.75;4938416;29;20131;-87
2023/06/12 00:42:59;;;;;;;9.77;5.47;;;21.20;53.00;;;20.86;43.46;100532.44;4919957;29;20137;-87
2023/06/12 00:45:27;;;;;;;8.00;5.15;;;21.20;52.70;;;20.84;43.86;100534.66;4925367;29;20563;-86
2023/06/12 00:47:57;;;;;;;7.40;5.30;;;21.10;52.90;;;20.80;43.49;100526.25;4938488;29;20095;-85
2023/06/12 00:50:27;;;;;;;8.35;5.50;;;21.10;52.90;;;20.77;43.87;100531.41;4920093;29;20139;-84
2023/06/12 00:52:57;;;;;;;9.75;5.40;;;21.10;52.90;;;20.73;43.93;100522.19;4931989;29;20127;-86
2023/06/12 00:55:25;;;;;;;6.57;5.10;;;21.10;53.20;;;20.69;44.22;100523.84;4930398;29;20118;-85
2023/06/12 00:57:55;;;;;;;7.88;5.20;;;21.00;53.30;;;20.66;43.97;100519.78;4913147;29;20040;-85
2023/06/12 01:00:24;;;;;;;9.13;5.50;;;21.00;53.30;;;20.65;44.30;100528.22;4939029;29;20070;-85
2023/06/12 01:02:55;;;;;;;8.70;5.20;;;21.00;53.60;;;20.61;44.44;100521.72;4944292;29;20625;-88
2023/06/12 01:05:28;;;;;;;10.52;6.22;;;20.90;53.70;;;20.57;44.51;100516.03;4930752;29;20168;-86
2023/06/12 01:08:15;;;;;;;10.00;5.50;;;20.90;53.80;;;20.54;44.79;100519.28;4930099;29;20044;-86
2023/06/12 01:10:52;;;;;;;9.05;5.68;;;20.90;54.10;;;20.49;44.83;100525.53;4927050;29;20135;-87
2023/06/12 01:13:20;;;;;;;8.15;5.80;;;20.80;54.30;;;20.46;45.13;100515.22;4939146;29;20043;-85
2023/06/12 01:15:49;;;;;;;9.30;4.95;;;20.80;54.40;;;20.42;44.75;100518.75;4914005;29;20090;-87
2023/06/12 01:18:20;;;;;;;8.27;5.50;;;20.80;54.50;;;20.39;44.85;100519.31;4913598;29;20058;-86
2023/06/12 01:20:48;;;;;;;7.70;5.40;;;20.70;54.50;;;20.37;44.92;100518.78;4936087;29;20043;-85
2023/06/12 01:23:38;;;;;;;9.07;5.90;;;20.70;54.50;;;20.33;45.45;100522.03;4933897;29;20535;-86
2023/06/12 01:26:25;;;;;;;9.55;5.72;;;20.60;54.70;;;20.29;44.83;100517.44;4913974;29;20059;-88
2023/06/12 01:29:50;;;;;;;8.82;5.53;;;20.60;54.50;;;20.25;44.85;100513.63;4918993;29;20054;-84
2023/06/12 01:32:24;;;;;;;8.50;5.85;;;20.60;54.60;;;20.21;45.27;100518.00;4924154;29;20055;-85
2023/06/12 01:34:59;;;;;;;9.80;5.50;;;20.50;54.90;;;20.16;45.55;100516.13;4934434;29;20048;-85
2023/06/12 01:37:43;;;;;;;8.23;5.80;;;20.50;55.10;;;20.13;45.57;100521.25;4923638;29;20048;-87
2023/06/12 01:40:13;;;;;;;8.73;6.03;;;20.40;55.00;;;20.10;45.56;100514.47;4932668;29;20039;-86
2023/06/12 01:42:46;;;;;;;7.40;5.47;;;20.40;55.00;;;20.06;45.65;100516.94;4913789;29;20056;-86
2023/06/12 01:45:14;;;;;;;8.95;5.82;;;20.40;55.20;;;20.05;45.81;100509.88;4907319;29;20048;-85
2023/06/12 01:47:49;;;;;;;7.28;5.65;;;20.40;55.50;;;20.01;46.13;100510.72;4929946;29;20154;-86
2023/06/12 01:50:19;;;;;;;10.10;5.72;;;20.30;56.00;;;19.98;46.11;100508.56;4914355;29;20055;-86
2023/06/12 01:52:47;;;;;;;7.43;5.63;;;20.30;56.10;;;19.95;46.31;100512.59;4912873;29;20189;-87
2023/06/12 01:55:21;;;;;;;8.18;5.03;;;20.30;56.30;;;19.92;46.33;100506.94;4914548;29;20054;-86
2023/06/12 01:57:50;;;;;;;8.40;5.63;;;20.30;56.40;;;19.88;46.09;100503.97;4932722;29;20063;-87
2023/06/12 02:00:19;;;;;;;9.48;6.30;;;20.20;56.10;;;19.86;46.48;100508.81;4938434;29;20047;-85
2023/06/12 02:02:54;;;;;;;8.17;5.97;;;20.20;56.10;;;19.83;46.16;100509.38;4934548;29;20055;-87
2023/06/12 02:05:24;;;;;;;9.25;6.00;;;20.20;56.10;;;19.80;45.96;100504.50;4933641;29;20047;-85
2023/06/12 02:07:51;;;;;;;12.38;6.47;;;20.10;56.10;;;19.78;46.17;100506.69;4918893;29;20056;-85
2023/06/12 02:10:19;;;;;;;8.95;6.43;;;20.10;56.30;;;19.73;46.40;100504.78;4927547;29;20058;-85
2023/06/12 02:12:46;;;;;;;10.27;6.03;;;20.00;56.20;;;19.72;46.42;100513.19;4926225;29;20046;-85
2023/06/12 02:15:14;;;;;;;9.88;6.10;;;20.00;56.60;;;19.68;46.80;100504.78;4926562;29;20044;-86
2023/06/12 02:17:41;;;;;;;11.30;6.47;;;20.00;56.70;;;19.64;46.80;100506.41;4936813;29;20054;-85
2023/06/12 02:20:11;;;;;;;7.82;5.75;;;20.00;56.70;;;19.63;46.97;100512.09;4935803;29;20110;-85
2023/06/12 02:22:40;;;;;;;9.13;6.43;;;20.00;56.70;;;19.62;46.73;100507.75;4924546;29;20071;-86
2023/06/12 02:25:09;;;;;;;11.18;6.10;;;20.00;56.70;;;19.58;46.73;100504.75;4902746;29;20044;-85
2023/06/12 02:27:36;;;;;;;10.55;6.05;;;19.90;57.00;;;19.55;47.20;100511.50;4916106;29;20072;-85
2023/06/12 02:30:06;;;;;;;8.32;5.80;;;19.90;57.10;;;19.54;47.05;100509.88;4915849;29;20043;-86
2023/06/12 02:32:38;;;;;;;8.63;5.78;;;19.80;57.20;;;19.52;47.09;100511.22;4935743;29;20047;-85
2023/06/12 02:35:08;;;;;;;8.88;5.95;;;19.80;57.40;;;19.49;47.55;100518.00;4933918;29;20084;-85
2023/06/12 02:37:38;;;;;;;10.63;6.63;;;19.80;57.30;;;19.48;47.44;100518.28;4928502;29;20052;-85
2023/06/12 02:40:10;;;;;;;9.43;5.93;;;19.80;57.30;;;19.45;47.35;100516.09;4926648;29;20048;-85
2023/06/12 02:42:41;;;;;;;8.85;5.68;;;19.80;57.40;;;19.42;47.45;100522.88;4905354;29;20043;-86
2023/06/12 02:45:09;;;;;;;11.20;6.53;;;19.70;57.40;;;19.40;47.53;100519.63;4941357;29;20119;-84
2023/06/12 02:47:37;;;;;;;8.93;5.78;;;19.70;57.50;;;19.37;47.48;100525.53;4908704;29;20143;-86
2023/06/12 02:50:08;;;;;;;8.80;6.25;;;19.70;57.70;;;19.35;47.61;100516.91;4930247;29;20047;-84
2023/06/12 02:52:45;;;;;;;10.55;6.20;;;19.70;57.50;;;19.35;48.03;100524.22;4910208;29;20755;-85
2023/06/12 02:55:12;;;;;;;8.05;5.78;;;19.60;57.70;;;19.30;47.93;100520.41;4923500;29;20130;-86
2023/06/12 02:57:40;;;;;;;10.27;6.30;;;19.60;58.00;;;19.27;47.87;100522.81;4941592;29;20066;-86
2023/06/12 03:00:09;;;;;;;8.60;6.20;;;19.60;58.00;;;19.26;48.20;100532.84;4925627;29;20044;-85
2023/06/12 03:02:47;;;;;;;8.68;6.18;;;19.60;58.30;;;19.24;48.22;100526.09;4920668;29;20501;-85
2023/06/12 03:05:15;;;;;;;12.30;6.40;;;19.60;58.30;;;19.23;48.14;100529.88;4932309;29;20044;-88
2023/06/12 03:07:44;;;;;;;8.55;6.32;;;19.50;58.50;;;19.20;48.29;100525.78;4919317;23;20099;-85
2023/06/12 03:10:16;;;;;;;11.40;6.50;;;19.50;58.50;;;19.18;48.58;100533.38;4920474;29;20036;-85
2023/06/12 03:12:44;;;;;;;8.70;6.45;;;19.50;58.70;;;19.17;48.46;100525.50;4943948;28;20516;-85
2023/06/12 03:15:14;;;;;;;9.75;6.60;;;19.50;58.90;;;19.15;48.53;100528.50;4935779;29;20051;-84
2023/06/12 03:17:42;;;;;;;9.23;5.82;;;19.50;59.00;;;19.14;48.91;100534.19;4942112;28;20509;-85
2023/06/12 03:20:11;;;;;;;11.27;6.10;;;19.50;59.20;;;19.11;48.74;100535.50;4939698;28;20048;-85
2023/06/12 03:22:38;;;;;;;9.23;5.97;;;19.40;59.10;;;19.11;48.70;100540.09;4935273;29;20100;-85
2023/06/12 03:25:09;;;;;;;9.50;6.80;;;19.40;59.20;;;19.08;49.01;100535.22;4947269;28;20385;-85
2023/06/12 03:27:37;;;;;;;10.75;6.15;;;19.40;59.30;;;19.07;49.07;100542.50;4924156;29;20039;-85
2023/06/12 03:30:06;;;;;;;8.20;5.88;;;19.40;59.50;;;19.03;49.17;100534.16;4933521;29;20662;-84
2023/06/12 03:32:33;;;;;;;8.82;6.38;;;19.40;59.60;;;19.03;49.23;100541.41;4940399;28;20122;-85
2023/06/12 03:35:03;;;;;;;10.07;6.53;;;19.40;59.90;;;19.02;49.49;100535.19;4927113;28;20646;-85
2023/06/12 03:37:30;;;;;;;8.48;6.22;;;19.30;60.10;;;19.01;49.71;100540.88;4927946;29;20062;-85
2023/06/12 03:40:03;;;;;;;12.13;6.88;;;19.30;60.20;;;18.99;49.67;100537.66;4917387;29;20055;-84
2023/06/12 03:42:36;;;;;;;9.43;6.10;;;19.30;60.40;;;18.97;49.73;100543.28;4916226;29;20431;-84
2023/06/12 03:45:04;;;;;;;9.15;5.95;;;19.30;60.30;;;18.97;49.81;100545.19;4924590;29;20051;-85
2023/06/12 03:47:32;;;;;;;8.93;6.10;;;19.30;60.40;;;18.96;49.56;100547.09;4941652;28;20493;-85
2023/06/12 03:50:00;;;;;;;11.88;6.30;;;19.30;60.50;;;18.95;49.69;100541.94;4923970;29;20051;-85
2023/06/12 03:52:28;;;;;;;11.20;6.85;;;19.30;60.60;;;18.95;49.74;100539.25;4921533;29;20075;-85
2023/06/12 03:54:55;;;;;;;9.77;6.30;;;19.30;60.80;;;18.95;50.00;100539.25;4912474;29;20051;-86
2023/06/12 03:57:23;;;;;;;7.78;5.95;;;19.20;60.90;;;18.93;49.89;100536.78;4928713;29;20054;-82
2023/06/12 03:59:51;;;;;;;8.30;6.20;;;19.20;60.90;;;18.95;50.08;100542.75;4928255;29;20044;-85
2023/06/12 04:02:18;;;;;;;9.00;6.20;;;19.20;61.10;;;18.96;50.29;100547.09;4931300;29;20588;-85
2023/06/12 04:04:46;;;;;;;8.75;6.18;;;19.20;61.00;;;18.96;50.35;100547.09;4911322;29;20527;-84
2023/06/12 04:07:15;;;;;;;8.30;6.03;;;19.30;61.60;;;18.94;50.80;100543.84;4924252;28;20078;-85
2023/06/12 04:09:42;;;;;;;12.25;6.70;;;19.30;61.70;;;18.95;50.60;100550.06;4921342;28;20047;-85
2023/06/12 04:12:11;;;;;;;9.52;6.30;;;19.30;61.60;;;18.96;50.26;100543.56;4944097;28;20047;-85
2023/06/12 04:14:38;;;;;;;10.27;6.30;;;19.20;61.50;;;18.98;50.65;100549.50;4951659;29;20795;-85
2023/06/12 04:17:07;;;;;;;8.25;6.32;;;19.30;61.50;;;19.01;50.37;100549.81;4943540;28;20043;-84
2023/06/12 04:19:35;;;;;;;8.23;5.68;;;19.30;61.60;;;19.02;50.73;100551.41;4943274;29;20035;-85
2023/06/12 04:22:02;;;;;;;8.20;6.15;;;19.30;61.80;;;19.06;51.29;100549.00;4913103;29;20416;-84
2023/06/12 04:24:32;;;;;;;8.30;6.30;;;19.40;62.40;;;19.11;50.93;100556.31;4932967;29;20043;-84
2023/06/12 04:27:01;;;;;;;11.48;7.00;;;19.40;61.90;;;19.15;51.16;100546.59;4925419;28;20126;-85
2023/06/12 04:29:29;;;;;;;9.65;6.35;;;19.50;62.10;;;19.19;50.94;100548.50;4921009;28;20134;-82
2023/06/12 04:31:58;;;;;;;8.30;6.10;;;19.60;62.20;;;19.26;50.97;100548.25;4942429;28;20046;-85
2023/06/12 04:34:26;;;;;;;9.60;7.30;;;19.60;62.00;;;19.33;50.73;100546.13;4950143;28;20047;-84
2023/06/12 04:36:53;;;;;;;11.38;6.75;;;19.70;62.20;;;19.44;51.26;100542.34;4943878;28;20474;-85
2023/06/12 04:39:22;;;;;;;11.50;6.50;;;19.80;62.50;;;19.55;51.79;100548.56;4923655;29;20047;-85
2023/06/12 04:41:51;;;;;;;10.85;6.85;;;19.90;62.80;;;19.67;50.42;100542.94;4908498;29;20521;-85
2023/06/12 04:44:21;;;;;;;10.60;6.20;;;20.10;61.60;;;19.80;49.70;100539.69;4943091;28;20136;-85
2023/06/12 04:46:48;;;;;;;10.23;6.53;;;20.20;60.90;;;19.94;50.18;100548.09;4935741;28;20079;-84
2023/06/12 04:49:16;;;;;;;14.63;6.93;;;20.30;61.20;;;20.09;49.95;100542.66;4916805;29;20516;-84
2023/06/12 04:51:48;;;;;;;12.65;7.35;;;20.40;61.00;;;20.23;49.46;100542.91;4925391;29;20043;-85
2023/06/12 04:54:18;;;;;;;14.45;6.78;;;20.60;60.20;;;20.40;49.57;100539.88;4936727;29;20056;-84
2023/06/12 04:56:47;;;;;;;10.13;7.30;;;20.70;60.40;;;20.52;48.87;100541.25;4915395;29;20059;-85
2023/06/12 04:59:16;;;;;;;11.57;7.53;;;20.90;59.70;;;20.67;48.73;100547.72;4913980;29;20138;-84
2023/06/12 05:01:44;;;;;;;10.65;6.53;;;21.00;59.30;;;20.79;48.62;100540.91;4923557;29;20075;-82
2023/06/12 05:04:12;;;;;;;14.57;7.20;;;21.20;59.10;;;20.93;47.98;100548.41;4931086;29;20052;-83
2023/06/12 05:06:40;;;;;;;10.88;7.07;;;21.30;58.20;;;21.05;47.15;100555.13;4943647;28;20407;-83
2023/06/12 05:09:09;;;;;;;10.65;7.05;;;21.40;57.80;;;21.17;47.02;100551.28;4922489;29;20047;-82
2023/06/12 05:11:36;;;;;;;10.73;6.32;;;21.50;57.70;;;21.25;47.17;100540.66;4904950;29;20047;-89
2023/06/12 05:14:04;;;;;;;12.77;6.78;;;21.60;57.20;;;21.39;47.93;100548.22;4909584;29;20044;-92
2023/06/12 05:16:32;;;;;;;11.43;6.57;;;21.80;58.20;;;21.49;46.99;100557.09;4922841;29;20135;-92
2023/06/12 05:18:59;;;;;;;11.60;6.22;;;21.90;57.50;;;21.59;46.74;100561.63;4929684;29;20055;-88
2023/06/12 05:21:27;;;;;;;11.88;7.00;;;22.00;56.90;;;21.71;45.89;100556.66;4911145;29;20101;-89
2023/06/12 05:23:55;;;;;;;15.63;7.15;;;22.10;55.80;;;21.84;46.18;100560.63;4925626;29;20048;-89
2023/06/12 05:26:24;;;;;;;13.10;6.75;;;22.20;56.10;;;21.95;45.55;100558.63;4916395;29;20044;-88
2023/06/12 05:28:52;;;;;;;13.75;7.07;;;22.40;55.50;;;22.03;44.54;100556.13;4917154;29;20044;-84
2023/06/12 05:31:19;;;;;;;14.32;6.60;;;22.50;54.20;;;22.14;44.60;100547.91;4920149;29;20044;-86
2023/06/12 05:33:47;;;;;;;14.80;6.78;;;22.60;54.40;;;22.23;43.27;100548.91;4912253;29;20113;-86
2023/06/12 05:36:15;;;;;;;10.63;6.35;;;22.70;53.00;;;22.31;43.98;100551.00;4919631;29;20054;-84
2023/06/12 05:38:46;;;;;;;13.85;6.28;;;22.70;53.90;;;22.41;43.97;100548.19;4933651;29;20130;-86
2023/06/12 05:41:13;;;;;;;14.00;6.25;;;22.80;53.50;;;22.50;43.13;100554.59;4920088;29;20052;-87
2023/06/12 05:43:44;;;;;;;9.38;6.30;;;22.90;52.10;;;22.58;43.78;100551.25;4917405;29;20047;-84
2023/06/12 05:46:11;;;;;;;9.45;6.28;;;23.00;53.20;;;22.69;43.09;100554.66;4927453;28;20130;-85
2023/06/12 05:48:38;;;;;;;10.65;6.18;;;23.10;52.20;;;22.76;43.01;100554.31;4913161;29;20083;-84
2023/06/12 05:51:07;;;;;;;10.05;6.00;;;23.20;52.20;;;22.84;42.42;100556.41;4934967;28;20069;-84
2023/06/12 05:53:35;;;;;;;9.07;6.55;;;23.30;51.60;;;22.91;41.79;100562.31;4935211;28;20571;-89
2023/06/12 05:56:03;;;;;;;10.35;6.28;;;23.40;50.70;;;23.02;42.07;100558.34;4917397;29;20039;-87
2023/06/12 05:58:30;;;;;;;11.38;6.50;;;23.40;51.20;;;23.11;41.31;100555.78;4911803;29;20141;-88
2023/06/12 06:01:00;;;;;;;11.32;6.35;;;23.50;50.00;;;23.18;41.93;100556.25;4917515;29;20071;-90
2023/06/12 06:03:48;;;;;;;10.02;6.05;;;23.60;50.60;;;23.27;41.81;100559.91;4930039;28;20778;-88
2023/06/12 06:06:16;;;;;;;10.85;6.43;;;23.70;50.50;;;23.34;40.96;100560.38;4931275;29;20055;-86
2023/06/12 06:08:45;;;;;;;9.43;6.30;;;23.80;49.60;;;23.44;41.48;100558.59;4917024;29;20119;-91
2023/06/12 06:11:13;;;;;;;8.45;6.18;;;23.90;50.00;;;23.53;40.76;100559.56;4920112;29;20044;-90
2023/06/12 06:13:43;;;;;;;10.75;6.00;;;24.00;49.30;;;23.60;40.96;100563.50;4920549;29;20040;-90
2023/06/12 06:16:13;;;;;;;11.00;5.82;;;24.10;49.30;;;23.69;40.83;100560.16;4910139;29;20398;-89
2023/06/12 06:18:41;;;;;;;12.55;6.45;;;24.10;49.10;;;23.77;41.15;100564.94;4923387;29;20044;-89
2023/06/12 06:21:11;;;;;;;8.55;5.13;;;24.20;49.50;;;23.84;40.24;100555.28;4919402;28;20066;-91
2023/06/12 06:23:38;;;;;;;11.88;6.10;;;24.30;48.50;;;23.86;39.62;100565.84;4932112;29;20089;-88
2023/06/12 06:26:05;;;;;;;10.55;6.57;;;24.40;48.00;;;23.93;40.21;100558.13;4938429;28;20057;-88
2023/06/12 06:28:33;;;;;;;8.38;5.75;;;24.40;48.40;;;24.02;41.69;100559.06;4921018;29;20062;-89
2023/06/12 06:31:00;;;;;;;8.98;6.00;;;24.50;50.00;;;24.11;40.53;100567.38;4923845;29;20169;-88
2023/06/12 06:33:29;;;;;;;12.95;6.10;;;24.60;48.80;;;24.18;40.70;100556.88;4936482;28;20055;-88
2023/06/12 06:35:56;;;;;;;9.43;6.10;;;24.60;48.90;;;24.27;39.96;100557.00;4906910;29;20063;-89
2023/06/12 06:38:24;;;;;;;9.07;5.93;;;24.70;48.00;;;24.31;39.75;100564.28;4942497;29;20560;-88
2023/06/12 06:40:52;;;;;;;9.05;6.13;;;24.80;47.70;;;24.39;40.39;100565.50;4933317;29;20075;-89
2023/06/12 06:43:21;;;;;;;13.00;6.03;;;24.90;48.50;;;24.47;39.67;100559.38;4911442;29;20047;-88
2023/06/12 06:45:52;;;;;;;13.73;5.88;;;25.00;47.60;;;24.58;39.76;100562.69;4919453;29;20106;-87
2023/06/12 06:48:20;;;;;;;11.27;5.85;;;25.10;47.50;;;24.67;39.07;100558.97;4932380;28;20131;-89
2023/06/12 06:50:49;;;;;;;11.07;6.05;;;25.20;46.70;;;24.77;38.82;100562.59;4931092;29;20142;-88
2023/06/12 06:53:17;;;;;;;7.85;5.45;;;25.30;46.60;;;24.84;39.52;100565.72;4937665;28;20048;-87
2023/06/12 06:55:47;;;;;;;12.38;6.40;;;25.30;46.90;;;24.95;39.21;100561.69;4940422;28;20111;-88
2023/06/12 06:58:15;;;;;;;9.35;5.97;;;25.50;46.90;;;25.03;39.44;100560.94;4944186;29;20051;-80
2023/06/12 07:00:43;;;;;;;13.10;6.13;;;25.60;46.60;;;25.13;39.85;100558.06;4915545;29;20048;-85
2023/06/12 07:03:11;;;;;;;10.40;5.55;;;25.70;47.20;;;25.23;39.59;100561.66;4913895;29;20047;-88
2023/06/12 07:05:40;;;;;;;10.15;6.07;;;25.80;46.70;;;25.33;39.96;100553.25;4917090;29;20044;-85
2023/06/12 07:08:10;;;;;;;13.25;6.05;;;25.90;47.10;;;25.43;39.12;100558.47;4936032;28;20052;-88
2023/06/12 07:10:40;;;;;;;9.30;5.68;;;26.00;46.60;;;25.53;38.97;100558.25;4930510;29;20059;-85
2023/06/12 07:13:09;;;;;;;9.63;5.63;;;26.00;46.20;;;25.59;38.58;100556.19;4931848;28;20051;-85
2023/06/12 07:15:42;;;;;;;10.95;6.00;;;26.10;46.00;;;25.62;38.93;100552.81;4913218;29;20107;-84
2023/06/12 07:18:11;;;;;;;9.70;5.88;;;26.20;46.00;;;25.66;39.02;100548.34;4934969;28;20155;-85
2023/06/12 07:20:38;;;;;;;9.73;5.85;;;26.30;46.00;;;25.68;38.58;100549.69;4925967;28;20039;-85
2023/06/12 07:23:06;;;;;;;10.65;6.18;;;26.30;45.60;;;25.69;39.05;100545.81;4906888;29;20044;-85
2023/06/12 07:25:34;;;;;;;9.68;6.07;;;26.30;46.30;;;25.73;39.16;100545.22;4926540;29;20052;-88
2023/06/12 07:28:03;;;;;;;10.25;6.15;;;26.30;46.20;;;25.77;38.61;100546.22;4915449;29;21788;-81
2023/06/12 07:30:33;;;;;;;11.98;5.85;;;26.40;45.70;;;25.81;37.94;100541.75;4928334;29;20054;-86
2023/06/12 07:33:01;;;;;;;8.68;6.07;;;26.40;44.60;;;25.83;36.97;100542.25;4935913;29;20039;-88
2023/06/12 07:35:29;;;;;;;12.20;6.13;;;26.40;43.40;;;25.89;36.71;100538.25;4926719;29;20058;-88
2023/06/12 07:37:56;;;;;;;8.20;5.10;;;26.50;42.90;;;25.92;36.67;100538.47;4932431;28;20443;-86
2023/06/12 07:40:24;;;;;;;8.45;5.22;;;26.50;43.10;;;26.00;37.13;100545.06;4936760;29;20460;-88
2023/06/12 07:42:53;;;;;;;12.15;5.60;;;26.50;43.30;;;26.06;36.18;100538.38;4937826;28;20035;-88
2023/06/12 07:45:21;;;;;;;9.35;5.38;;;26.60;41.90;;;26.11;37.18;100543.72;4908354;29;20643;-88
2023/06/12 07:47:49;;;;;;;9.75;5.53;;;26.80;43.10;;;26.17;35.79;100527.97;4913451;29;20064;-87
2023/06/12 07:50:19;;;;;;;9.50;5.85;;;26.80;41.30;;;26.24;36.00;100532.97;4909282;29;20048;-86
2023/06/12 07:52:46;;;;;;;10.23;5.15;;;26.90;42.00;;;26.31;35.27;100536.09;4938151;29;20059;-86
2023/06/12 07:55:16;;;;;;;8.07;5.30;;;26.90;41.30;;;26.32;33.87;100532.22;4930144;29;20069;-88
2023/06/12 07:57:43;;;;;;;7.68;5.25;;;26.90;39.10;;;26.32;34.25;100535.75;4910537;29;20059;-86
2023/06/12 08:00:14;;;;;;;8.18;5.20;;;26.90;39.40;;;26.36;34.81;100531.28;4917694;28;20075;-88
2023/06/12 08:02:54;;;;;;;7.28;5.45;;;27.00;40.80;;;26.40;33.84;100525.97;4928822;29;20047;-84
2023/06/12 08:05:23;;;;;;;9.82;5.82;;;27.00;39.40;;;26.44;34.76;100524.25;4921175;29;20052;-87
2023/06/12 08:07:50;;;;;;;7.00;4.97;;;27.00;40.80;;;26.47;35.09;100526.34;4922731;29;20047;-87
2023/06/12 08:10:18;;;;;;;7.53;5.18;;;27.10;40.90;;;26.45;34.15;100531.34;4921630;29;20051;-86
2023/06/12 08:12:46;;;;;;;9.20;5.50;;;27.10;39.70;;;26.38;35.02;100515.34;4928443;29;20044;-87
2023/06/12 08:15:15;;;;;;;8.30;5.53;;;27.00;41.10;;;26.37;35.96;100521.16;4933844;29;20055;-85
2023/06/12 08:17:42;;;;;;;8.60;5.30;;;27.00;41.80;;;26.35;35.37;100526.09;4916578;29;20059;-85
2023/06/12 08:20:12;;;;;;;7.82;5.65;;;27.00;41.20;;;26.31;35.90;100523.22;4930946;29;20050;-86
2023/06/12 08:22:41;;;;;;;10.40;5.68;;;27.00;41.80;;;26.31;35.44;100525.16;4934092;29;20051;-87
2023/06/12 08:25:09;;;;;;;8.63;5.55;;;27.00;41.20;;;26.33;34.83;100520.16;4926875;29;20044;-85
2023/06/12 08:27:37;;;;;;;8.27;5.40;;;27.00;40.40;;;26.36;34.29;100523.06;4914844;29;20052;-85
2023/06/12 08:30:06;;;;;;;7.45;5.18;;;27.00;39.70;;;26.40;34.97;100515.84;4922347;29;20595;-86
2023/06/12 08:32:35;;;;;;;8.65;5.45;;;27.00;40.30;;;26.46;35.95;100518.47;4942705;28;20578;-86
2023/06/12 08:35:02;;;;;;;10.52;5.78;;;27.10;41.70;;;26.51;35.07;100512.88;4928221;28;20052;-87
2023/06/12 08:37:31;;;;;;;8.35;5.80;;;27.10;40.80;;;26.57;36.72;100520.59;4916094;29;20044;-86
2023/06/12 08:39:58;;;;;;;10.00;5.28;;;27.20;42.70;;;26.64;35.18;100520.94;4932703;29;20067;-86
2023/06/12 08:42:26;;;;;;;8.07;5.50;;;27.30;40.90;;;26.66;34.42;100523.38;4904666;29;20055;-86
2023/06/12 08:45:04;;;;;;;9.18;5.70;;;27.20;39.70;;;26.63;33.95;100524.00;4914804;29;20054;-85
2023/06/12 08:47:36;;;;;;;8.82;5.63;;;27.30;39.60;;;26.69;35.15;100522.72;4930111;29;20043;-86
2023/06/12 08:50:05;;;;;;;11.63;5.60;;;27.30;40.30;;;26.76;35.99;100517.59;4920016;29;20048;-82
2023/06/12 08:52:34;;;;;;;8.60;5.50;;;27.40;41.50;;;26.80;34.79;100521.31;4926318;29;20047;-86
2023/06/12 08:55:03;;;;;;;8.52;5.72;;;27.40;39.90;;;26.85;33.92;100520.34;4937600;28;20043;-88
2023/06/12 08:57:31;;;;;;;7.55;5.40;;;27.40;38.80;;;26.87;33.71;100512.63;4918740;28;20083;-88
2023/06/12 08:59:58;;;;;;;10.45;5.68;;;27.50;38.80;;;26.89;34.83;100510.34;4940505;28;20115;-87
2023/06/12 09:02:28;;;;;;;7.20;5.63;;;27.50;40.00;;;26.92;34.21;100509.72;4935330;29;20055;-87
2023/06/12 09:05:02;;;;;;;8.15;5.45;;;27.50;39.60;;;26.96;33.88;100510.69;4931659;29;20115;-89
2023/06/12 09:07:33;;;;;;;9.02;6.25;;;27.60;39.00;;;27.00;34.50;100508.94;4997593;23;20110;-91
2023/06/12 09:10:00;;;;;;;10.18;6.20;;;27.60;39.90;;;27.08;34.17;100507.34;4949555;28;20075;-90
2023/06/12 09:12:31;;;;;;;9.02;5.75;;;27.70;39.30;;;27.09;33.76;100507.06;4945882;28;20122;-90
2023/06/12 09:15:02;;;;;;;9.52;6.00;;;27.70;38.70;;;27.13;33.91;100499.81;4942113;28;20130;-89
2023/06/12 09:17:29;;;;;;;11.98;5.68;;;27.70;38.90;;;27.15;36.71;100503.03;4934625;28;20051;-91
2023/06/12 09:19:58;;;;;;;9.27;6.18;;;27.80;42.40;;;27.22;35.52;100502.53;4949478;28;20054;-91
2023/06/12 09:22:25;;;;;;;9.98;5.88;;;27.80;41.10;;;27.24;35.46;100502.22;4966073;28;20148;-91
2023/06/12 09:24:56;;;;;;;9.65;6.05;;;27.90;40.70;;;27.25;34.09;100501.09;4954417;28;20049;-91
2023/06/12 09:27:23;;;;;;;9.60;5.88;;;27.90;39.00;;;27.27;34.47;100493.34;4945824;28;20118;-91
2023/06/12 09:29:51;;;;;;;10.85;5.60;;;27.90;39.40;;;27.26;33.94;100497.22;4949021;28;20043;-85
2023/06/12 09:32:18;;;;;;;9.05;5.47;;;27.90;39.00;;;27.27;33.22;100496.88;4952604;28;20415;-91
2023/06/12 09:34:48;;;;;;;10.80;5.63;;;27.90;37.80;;;27.26;35.16;100495.28;4948271;28;20053;-92
2023/06/12 09:37:17;;;;;;;9.17;5.87;;;27.90;40.50;;;27.28;35.90;100494.94;4950933;28;20059;-89
2023/06/12 09:39:44;;;;;;;10.23;5.85;;;28.00;41.80;;;27.34;35.40;100499.16;4947558;28;20519;-83
2023/06/12 09:42:13;;;;;;;10.35;5.85;;;28.00;40.90;;;27.35;34.55;100492.53;4953250;28;20043;-87
2023/06/12 09:44:41;;;;;;;9.90;6.13;;;28.00;39.60;;;27.33;34.19;100490.13;4939886;28;20129;-85
2023/06/12 09:47:09;;;;;;;8.10;5.47;;;28.00;39.30;;;27.31;33.77;100488.84;4954305;28;20055;-84
2023/06/12 09:49:36;;;;;;;10.20;6.47;;;28.00;39.10;;;27.32;33.28;100491.25;4949907;28;20051;-86
2023/06/12 09:52:06;;;;;;;10.48;5.40;;;28.00;38.20;;;27.32;32.42;100484.97;4947759;28;20079;-86
2023/06/12 09:54:35;;;;;;;9.18;5.82;;;28.00;37.40;;;27.33;33.01;100486.56;4938601;28;20043;-86
2023/06/12 09:57:06;;;;;;;8.35;5.85;;;28.00;37.60;;;27.30;33.17;100493.50;4952031;28;20051;-86
2023/06/12 09:59:35;;;;;;;8.27;5.47;;;28.00;38.40;;;27.32;33.69;100490.44;4945373;28;20179;-89
2023/06/12 10:02:12;;;;;;;10.85;5.43;;;28.00;38.60;;;27.33;32.99;100490.13;4945263;28;20043;-87
2023/06/12 10:04:47;;;;;;;7.32;5.53;;;28.00;37.60;;;27.37;33.23;100493.00;4947971;28;20118;-85
2023/06/12 10:07:19;;;;;;;7.00;5.15;;;28.00;38.40;;;27.39;33.54;100491.56;4951579;28;20432;-85
2023/06/12 10:09:50;;;;;;;9.63;5.55;;;28.00;38.80;;;27.41;31.91;100493.97;4947611;28;20126;-86
2023/06/12 10:12:18;;;;;;;9.02;5.32;;;28.00;36.10;;;27.42;31.24;100485.44;4948234;28;20098;-85
2023/06/12 10:14:46;;;;;;;10.30;5.32;;;28.00;35.90;;;27.42;32.35;100493.66;4943151;28;20043;-85
2023/06/12 10:17:15;;;;;;;7.90;5.55;;;28.10;36.90;;;27.44;31.27;100483.19;4947346;28;20118;-85
2023/06/12 10:19:47;;;;;;;7.97;5.38;;;28.10;35.70;;;27.44;31.17;100485.13;4950813;28;20047;-85